sensor_id;sensor_type;location;lat;lon;timestamp;temperature;humidity
79491;SHT31;68950;53.098;18.032;2023-05-06T00:01:39;19.68;54.04
79491;SHT31;68950;53.098;18.032;2023-05-06T00:04:06;19.69;54.06
79491;SHT31;68950;53.098;18.032;2023-05-06T00:06:32;19.67;54.09
79491;SHT31;68950;53.098;18.032;2023-05-06T00:08:59;19.67;54.09
79491;SHT31;68950;53.098;18.032;2023-05-06T00:11:25;19.66;54.09
79491;SHT31;68950;53.098;18.032;2023-05-06T00:13:52;19.66;54.09
79491;SHT31;68950;53.098;18.032;2023-05-06T00:16:19;19.66;54.09
79491;SHT31;68950;53.098;18.032;2023-05-06T00:18:45;19.65;54.10
79491;SHT31;68950;53.098;18.032;2023-05-06T00:21:12;19.64;54.09
79491;SHT31;68950;53.098;18.032;2023-05-06T00:23:38;19.63;54.10
79491;SHT31;68950;53.098;18.032;2023-05-06T00:26:05;19.63;54.10
79491;SHT31;68950;53.098;18.032;2023-05-06T00:28:32;19.62;54.10
79491;SHT31;68950;53.098;18.032;2023-05-06T00:30:59;19.62;54.10
79491;SHT31;68950;53.098;18.032;2023-05-06T00:33:25;19.61;54.10
79491;SHT31;68950;53.098;18.032;2023-05-06T00:35:52;19.61;54.10
79491;SHT31;68950;53.098;18.032;2023-05-06T00:38:19;19.60;54.10
79491;SHT31;68950;53.098;18.032;2023-05-06T00:40:45;19.60;54.11
79491;SHT31;68950;53.098;18.032;2023-05-06T00:43:12;19.59;54.10
79491;SHT31;68950;53.098;18.032;2023-05-06T00:45:38;19.59;54.10
79491;SHT31;68950;53.098;18.032;2023-05-06T00:48:05;19.59;54.10
79491;SHT31;68950;53.098;18.032;2023-05-06T00:50:33;19.58;54.10
79491;SHT31;68950;53.098;18.032;2023-05-06T00:53:01;19.59;54.11
79491;SHT31;68950;53.098;18.032;2023-05-06T00:55:30;19.57;54.10
79491;SHT31;68950;53.098;18.032;2023-05-06T00:57:56;19.56;54.11
79491;SHT31;68950;53.098;18.032;2023-05-06T01:00:23;19.56;54.11
79491;SHT31;68950;53.098;18.032;2023-05-06T01:02:51;19.56;54.11
79491;SHT31;68950;53.098;18.032;2023-05-06T01:05:19;19.55;54.10
79491;SHT31;68950;53.098;18.032;2023-05-06T01:10:35;19.54;54.10
79491;SHT31;68950;53.098;18.032;2023-05-06T01:13:33;19.54;54.10
79491;SHT31;68950;53.098;18.032;2023-05-06T01:16:19;19.52;54.10
79491;SHT31;68950;53.098;18.032;2023-05-06T01:18:48;19.52;54.12
79491;SHT31;68950;53.098;18.032;2023-05-06T01:21:19;19.51;54.10
79491;SHT31;68950;53.098;18.032;2023-05-06T01:26:23;19.51;54.10
79491;SHT31;68950;53.098;18.032;2023-05-06T01:28:50;19.50;54.10
79491;SHT31;68950;53.098;18.032;2023-05-06T01:31:41;19.51;54.10
79491;SHT31;68950;53.098;18.032;2023-05-06T01:34:13;19.50;54.10
79491;SHT31;68950;53.098;18.032;2023-05-06T01:36:52;19.50;54.10
79491;SHT31;68950;53.098;18.032;2023-05-06T01:39:34;19.48;54.10
79491;SHT31;68950;53.098;18.032;2023-05-06T01:42:02;19.49;54.11
79491;SHT31;68950;53.098;18.032;2023-05-06T01:44:31;19.49;54.10
79491;SHT31;68950;53.098;18.032;2023-05-06T01:46:59;19.48;54.10
79491;SHT31;68950;53.098;18.032;2023-05-06T01:49:27;19.47;54.10
79491;SHT31;68950;53.098;18.032;2023-05-06T01:51:55;19.47;54.10
79491;SHT31;68950;53.098;18.032;2023-05-06T01:54:23;19.48;54.10
79491;SHT31;68950;53.098;18.032;2023-05-06T01:56:49;19.46;54.09
79491;SHT31;68950;53.098;18.032;2023-05-06T01:59:16;19.45;54.09
79491;SHT31;68950;53.098;18.032;2023-05-06T02:01:43;19.45;54.09
79491;SHT31;68950;53.098;18.032;2023-05-06T02:04:10;19.44;54.08
79491;SHT31;68950;53.098;18.032;2023-05-06T02:06:36;19.45;54.09
79491;SHT31;68950;53.098;18.032;2023-05-06T02:09:03;19.44;54.06
79491;SHT31;68950;53.098;18.032;2023-05-06T02:11:30;19.44;54.04
79491;SHT31;68950;53.098;18.032;2023-05-06T02:13:56;19.43;54.00
79491;SHT31;68950;53.098;18.032;2023-05-06T02:16:26;19.43;54.01
79491;SHT31;68950;53.098;18.032;2023-05-06T02:18:53;19.42;54.00
79491;SHT31;68950;53.098;18.032;2023-05-06T02:21:21;19.42;54.00
79491;SHT31;68950;53.098;18.032;2023-05-06T02:23:48;19.42;54.00
79491;SHT31;68950;53.098;18.032;2023-05-06T02:26:15;19.42;54.00
79491;SHT31;68950;53.098;18.032;2023-05-06T02:28:42;19.40;54.00
79491;SHT31;68950;53.098;18.032;2023-05-06T02:31:11;19.42;53.99
79491;SHT31;68950;53.098;18.032;2023-05-06T02:33:40;19.40;53.99
79491;SHT31;68950;53.098;18.032;2023-05-06T02:36:07;19.40;53.98
79491;SHT31;68950;53.098;18.032;2023-05-06T02:38:34;19.40;53.94
79491;SHT31;68950;53.098;18.032;2023-05-06T02:41:01;19.40;53.95
79491;SHT31;68950;53.098;18.032;2023-05-06T02:43:27;19.38;53.93
79491;SHT31;68950;53.098;18.032;2023-05-06T02:45:54;19.38;53.90
79491;SHT31;68950;53.098;18.032;2023-05-06T02:48:20;19.38;53.90
79491;SHT31;68950;53.098;18.032;2023-05-06T02:50:47;19.38;53.90
79491;SHT31;68950;53.098;18.032;2023-05-06T02:53:15;19.36;53.90
79491;SHT31;68950;53.098;18.032;2023-05-06T02:55:42;19.37;53.90
79491;SHT31;68950;53.098;18.032;2023-05-06T02:58:09;19.36;53.90
79491;SHT31;68950;53.098;18.032;2023-05-06T03:00:35;19.35;53.85
79491;SHT31;68950;53.098;18.032;2023-05-06T03:03:02;19.35;53.84
79491;SHT31;68950;53.098;18.032;2023-05-06T03:05:29;19.34;53.80
79491;SHT31;68950;53.098;18.032;2023-05-06T03:07:55;19.35;53.81
79491;SHT31;68950;53.098;18.032;2023-05-06T03:10:22;19.35;53.80
79491;SHT31;68950;53.098;18.032;2023-05-06T03:12:49;19.34;53.80
79491;SHT31;68950;53.098;18.032;2023-05-06T03:15:16;19.35;53.80
79491;SHT31;68950;53.098;18.032;2023-05-06T03:17:42;19.34;53.80
79491;SHT31;68950;53.098;18.032;2023-05-06T03:20:09;19.35;53.78
79491;SHT31;68950;53.098;18.032;2023-05-06T03:22:36;19.34;53.75
79491;SHT31;68950;53.098;18.032;2023-05-06T03:25:03;19.35;53.73
79491;SHT31;68950;53.098;18.032;2023-05-06T03:27:31;19.34;53.73
79491;SHT31;68950;53.098;18.032;2023-05-06T03:29:57;19.34;53.70
79491;SHT31;68950;53.098;18.032;2023-05-06T03:32:24;19.34;53.71
79491;SHT31;68950;53.098;18.032;2023-05-06T03:34:50;19.34;53.73
79491;SHT31;68950;53.098;18.032;2023-05-06T03:37:17;19.34;53.70
79491;SHT31;68950;53.098;18.032;2023-05-06T03:39:44;19.35;53.70
79491;SHT31;68950;53.098;18.032;2023-05-06T03:42:10;19.34;53.70
79491;SHT31;68950;53.098;18.032;2023-05-06T03:44:37;19.34;53.71
79491;SHT31;68950;53.098;18.032;2023-05-06T03:47:03;19.34;53.71
79491;SHT31;68950;53.098;18.032;2023-05-06T03:49:30;19.35;53.70
79491;SHT31;68950;53.098;18.032;2023-05-06T03:51:57;19.35;53.70
79491;SHT31;68950;53.098;18.032;2023-05-06T03:54:23;19.35;53.70
79491;SHT31;68950;53.098;18.032;2023-05-06T03:56:50;19.36;53.70
79491;SHT31;68950;53.098;18.032;2023-05-06T03:59:17;19.36;53.71
79491;SHT31;68950;53.098;18.032;2023-05-06T04:01:43;19.36;53.71
79491;SHT31;68950;53.098;18.032;2023-05-06T04:04:10;19.36;53.71
79491;SHT31;68950;53.098;18.032;2023-05-06T04:06:36;19.37;53.70
79491;SHT31;68950;53.098;18.032;2023-05-06T04:09:03;19.38;53.71
79491;SHT31;68950;53.098;18.032;2023-05-06T04:11:31;19.39;53.70
79491;SHT31;68950;53.098;18.032;2023-05-06T04:13:58;19.40;53.73
79491;SHT31;68950;53.098;18.032;2023-05-06T04:16:24;19.40;53.72
79491;SHT31;68950;53.098;18.032;2023-05-06T04:18:51;19.39;53.78
79491;SHT31;68950;53.098;18.032;2023-05-06T04:21:18;19.40;53.76
79491;SHT31;68950;53.098;18.032;2023-05-06T04:23:44;19.41;53.77
79491;SHT31;68950;53.098;18.032;2023-05-06T04:26:11;19.41;53.76
79491;SHT31;68950;53.098;18.032;2023-05-06T04:28:38;19.41;53.78
79491;SHT31;68950;53.098;18.032;2023-05-06T04:31:04;19.41;53.77
79491;SHT31;68950;53.098;18.032;2023-05-06T04:33:33;19.40;53.76
79491;SHT31;68950;53.098;18.032;2023-05-06T04:36:00;19.41;53.79
79491;SHT31;68950;53.098;18.032;2023-05-06T04:38:26;19.41;53.80
79491;SHT31;68950;53.098;18.032;2023-05-06T04:40:57;19.42;53.80
79491;SHT31;68950;53.098;18.032;2023-05-06T04:43:24;19.42;53.80
79491;SHT31;68950;53.098;18.032;2023-05-06T04:45:54;19.41;53.80
79491;SHT31;68950;53.098;18.032;2023-05-06T04:48:21;19.42;53.80
79491;SHT31;68950;53.098;18.032;2023-05-06T04:50:48;19.42;53.80
79491;SHT31;68950;53.098;18.032;2023-05-06T04:53:16;19.43;53.80
79491;SHT31;68950;53.098;18.032;2023-05-06T04:55:42;19.43;53.80
79491;SHT31;68950;53.098;18.032;2023-05-06T04:58:09;19.44;53.80
79491;SHT31;68950;53.098;18.032;2023-05-06T05:00:36;19.45;53.80
79491;SHT31;68950;53.098;18.032;2023-05-06T05:03:02;19.45;53.80
79491;SHT31;68950;53.098;18.032;2023-05-06T05:05:29;19.45;53.80
79491;SHT31;68950;53.098;18.032;2023-05-06T05:07:58;19.46;53.80
79491;SHT31;68950;53.098;18.032;2023-05-06T05:10:24;19.46;53.81
79491;SHT31;68950;53.098;18.032;2023-05-06T05:12:51;19.47;53.80
79491;SHT31;68950;53.098;18.032;2023-05-06T05:15:18;19.48;53.80
79491;SHT31;68950;53.098;18.032;2023-05-06T05:17:46;19.48;53.80
79491;SHT31;68950;53.098;18.032;2023-05-06T05:20:13;19.49;53.80
79491;SHT31;68950;53.098;18.032;2023-05-06T05:22:39;19.49;53.80
79491;SHT31;68950;53.098;18.032;2023-05-06T05:25:06;19.50;53.80
79491;SHT31;68950;53.098;18.032;2023-05-06T05:27:33;19.49;53.80
79491;SHT31;68950;53.098;18.032;2023-05-06T05:30:00;19.49;53.79
79491;SHT31;68950;53.098;18.032;2023-05-06T05:32:27;19.50;53.80
79491;SHT31;68950;53.098;18.032;2023-05-06T05:34:53;19.51;53.80
79491;SHT31;68950;53.098;18.032;2023-05-06T05:37:20;19.49;53.80
79491;SHT31;68950;53.098;18.032;2023-05-06T05:39:47;19.49;53.79
79491;SHT31;68950;53.098;18.032;2023-05-06T05:42:13;19.50;53.79
79491;SHT31;68950;53.098;18.032;2023-05-06T05:44:59;19.50;53.76
79491;SHT31;68950;53.098;18.032;2023-05-06T05:47:25;19.50;53.77
79491;SHT31;68950;53.098;18.032;2023-05-06T05:49:52;19.50;53.75
79491;SHT31;68950;53.098;18.032;2023-05-06T05:52:19;19.51;53.75
79491;SHT31;68950;53.098;18.032;2023-05-06T05:54:46;19.50;53.73
79491;SHT31;68950;53.098;18.032;2023-05-06T05:57:12;19.51;53.73
79491;SHT31;68950;53.098;18.032;2023-05-06T05:59:39;19.51;53.75
79491;SHT31;68950;53.098;18.032;2023-05-06T06:02:05;19.52;53.74
79491;SHT31;68950;53.098;18.032;2023-05-06T06:04:32;19.51;53.72
79491;SHT31;68950;53.098;18.032;2023-05-06T06:06:59;19.52;53.75
79491;SHT31;68950;53.098;18.032;2023-05-06T06:09:27;19.52;53.70
79491;SHT31;68950;53.098;18.032;2023-05-06T06:11:53;19.52;53.70
79491;SHT31;68950;53.098;18.032;2023-05-06T06:14:20;19.54;53.70
79491;SHT31;68950;53.098;18.032;2023-05-06T06:16:47;19.53;53.70
79491;SHT31;68950;53.098;18.032;2023-05-06T06:19:13;19.54;53.70
79491;SHT31;68950;53.098;18.032;2023-05-06T06:21:41;19.55;53.70
79491;SHT31;68950;53.098;18.032;2023-05-06T06:24:07;19.55;53.71
79491;SHT31;68950;53.098;18.032;2023-05-06T06:26:34;19.56;53.70
79491;SHT31;68950;53.098;18.032;2023-05-06T06:29:00;19.56;53.70
79491;SHT31;68950;53.098;18.032;2023-05-06T06:31:27;19.56;53.70
79491;SHT31;68950;53.098;18.032;2023-05-06T06:33:54;19.57;53.70
79491;SHT31;68950;53.098;18.032;2023-05-06T06:36:21;19.57;53.70
79491;SHT31;68950;53.098;18.032;2023-05-06T06:38:47;19.57;53.70
79491;SHT31;68950;53.098;18.032;2023-05-06T06:41:14;19.57;53.70
79491;SHT31;68950;53.098;18.032;2023-05-06T06:43:41;19.57;53.70
79491;SHT31;68950;53.098;18.032;2023-05-06T06:46:07;19.58;53.70
79491;SHT31;68950;53.098;18.032;2023-05-06T06:48:34;19.59;53.71
79491;SHT31;68950;53.098;18.032;2023-05-06T06:51:01;19.59;53.70
79491;SHT31;68950;53.098;18.032;2023-05-06T06:53:27;19.60;53.70
79491;SHT31;68950;53.098;18.032;2023-05-06T06:55:54;19.64;53.72
79491;SHT31;68950;53.098;18.032;2023-05-06T06:58:20;19.66;53.77
79491;SHT31;68950;53.098;18.032;2023-05-06T07:00:47;19.68;53.78
79491;SHT31;68950;53.098;18.032;2023-05-06T07:03:14;19.69;53.80
79491;SHT31;68950;53.098;18.032;2023-05-06T07:05:44;19.72;53.80
79491;SHT31;68950;53.098;18.032;2023-05-06T07:08:11;19.72;53.80
79491;SHT31;68950;53.098;18.032;2023-05-06T07:10:38;19.74;53.81
79491;SHT31;68950;53.098;18.032;2023-05-06T07:13:04;19.74;53.80
79491;SHT31;68950;53.098;18.032;2023-05-06T07:15:31;19.73;53.84
79491;SHT31;68950;53.098;18.032;2023-05-06T07:17:57;19.74;53.84
79491;SHT31;68950;53.098;18.032;2023-05-06T07:20:24;19.75;53.88
79491;SHT31;68950;53.098;18.032;2023-05-06T07:22:50;19.75;53.89
79491;SHT31;68950;53.098;18.032;2023-05-06T07:25:17;19.75;53.90
79491;SHT31;68950;53.098;18.032;2023-05-06T07:27:43;19.75;53.90
79491;SHT31;68950;53.098;18.032;2023-05-06T07:30:10;19.76;53.91
79491;SHT31;68950;53.098;18.032;2023-05-06T07:32:38;19.76;53.96
79491;SHT31;68950;53.098;18.032;2023-05-06T07:35:06;19.77;53.97
79491;SHT31;68950;53.098;18.032;2023-05-06T07:37:34;19.77;53.95
79491;SHT31;68950;53.098;18.032;2023-05-06T07:40:01;19.76;53.99
79491;SHT31;68950;53.098;18.032;2023-05-06T07:42:27;19.77;54.00
79491;SHT31;68950;53.098;18.032;2023-05-06T07:44:54;19.75;54.00
79491;SHT31;68950;53.098;18.032;2023-05-06T07:47:25;19.76;54.00
79491;SHT31;68950;53.098;18.032;2023-05-06T07:49:56;19.76;54.00
79491;SHT31;68950;53.098;18.032;2023-05-06T07:52:25;19.75;54.00
79491;SHT31;68950;53.098;18.032;2023-05-06T07:54:52;19.75;54.02
79491;SHT31;68950;53.098;18.032;2023-05-06T07:57:19;19.74;54.04
79491;SHT31;68950;53.098;18.032;2023-05-06T07:59:46;19.77;54.07
79491;SHT31;68950;53.098;18.032;2023-05-06T08:02:15;19.78;54.10
79491;SHT31;68950;53.098;18.032;2023-05-06T08:04:43;19.79;54.10
79491;SHT31;68950;53.098;18.032;2023-05-06T08:07:11;19.80;54.10
79491;SHT31;68950;53.098;18.032;2023-05-06T08:09:37;19.82;54.11
79491;SHT31;68950;53.098;18.032;2023-05-06T08:12:04;19.83;54.13
79491;SHT31;68950;53.098;18.032;2023-05-06T08:14:31;19.84;54.12
79491;SHT31;68950;53.098;18.032;2023-05-06T08:16:57;19.85;54.17
79491;SHT31;68950;53.098;18.032;2023-05-06T08:19:24;19.87;54.19
79491;SHT31;68950;53.098;18.032;2023-05-06T08:21:51;19.88;54.18
79491;SHT31;68950;53.098;18.032;2023-05-06T08:24:18;19.89;54.20
79491;SHT31;68950;53.098;18.032;2023-05-06T08:26:45;19.91;54.20
79491;SHT31;68950;53.098;18.032;2023-05-06T08:29:12;19.93;54.21
79491;SHT31;68950;53.098;18.032;2023-05-06T08:31:38;19.95;54.24
79491;SHT31;68950;53.098;18.032;2023-05-06T08:34:05;19.96;54.27
79491;SHT31;68950;53.098;18.032;2023-05-06T08:36:32;19.97;54.28
79491;SHT31;68950;53.098;18.032;2023-05-06T08:38:58;19.96;54.29
79491;SHT31;68950;53.098;18.032;2023-05-06T08:41:26;19.97;54.30
79491;SHT31;68950;53.098;18.032;2023-05-06T08:43:56;19.97;54.30
79491;SHT31;68950;53.098;18.032;2023-05-06T08:46:26;19.96;54.30
79491;SHT31;68950;53.098;18.032;2023-05-06T08:48:56;19.97;54.30
79491;SHT31;68950;53.098;18.032;2023-05-06T08:51:28;19.98;54.32
79491;SHT31;68950;53.098;18.032;2023-05-06T08:53:58;19.99;54.31
79491;SHT31;68950;53.098;18.032;2023-05-06T08:56:31;20.00;54.35
79491;SHT31;68950;53.098;18.032;2023-05-06T08:58:59;20.00;54.33
79491;SHT31;68950;53.098;18.032;2023-05-06T09:01:27;20.00;54.34
79491;SHT31;68950;53.098;18.032;2023-05-06T09:03:54;20.01;54.38
79491;SHT31;68950;53.098;18.032;2023-05-06T09:06:23;20.02;54.40
79491;SHT31;68950;53.098;18.032;2023-05-06T09:08:50;20.04;54.40
79491;SHT31;68950;53.098;18.032;2023-05-06T09:11:27;20.05;54.40
79491;SHT31;68950;53.098;18.032;2023-05-06T09:16:44;20.03;54.40
79491;SHT31;68950;53.098;18.032;2023-05-06T09:19:14;20.02;54.40
79491;SHT31;68950;53.098;18.032;2023-05-06T09:21:44;20.03;54.40
79491;SHT31;68950;53.098;18.032;2023-05-06T09:24:14;20.04;54.40
79491;SHT31;68950;53.098;18.032;2023-05-06T09:26:43;20.04;54.40
79491;SHT31;68950;53.098;18.032;2023-05-06T09:29:11;20.04;54.40
79491;SHT31;68950;53.098;18.032;2023-05-06T09:31:42;20.05;54.42
79491;SHT31;68950;53.098;18.032;2023-05-06T09:34:10;20.05;54.41
79491;SHT31;68950;53.098;18.032;2023-05-06T09:36:39;20.05;54.46
79491;SHT31;68950;53.098;18.032;2023-05-06T09:39:06;20.05;54.44
79491;SHT31;68950;53.098;18.032;2023-05-06T09:41:34;20.05;54.42
79491;SHT31;68950;53.098;18.032;2023-05-06T09:44:00;20.06;54.41
79491;SHT31;68950;53.098;18.032;2023-05-06T09:46:28;20.06;54.41
79491;SHT31;68950;53.098;18.032;2023-05-06T09:48:55;20.07;54.41
79491;SHT31;68950;53.098;18.032;2023-05-06T09:51:23;20.09;54.40
79491;SHT31;68950;53.098;18.032;2023-05-06T09:53:53;20.11;54.40
79491;SHT31;68950;53.098;18.032;2023-05-06T09:56:22;20.10;54.40
79491;SHT31;68950;53.098;18.032;2023-05-06T09:58:51;20.11;54.40
79491;SHT31;68950;53.098;18.032;2023-05-06T10:01:19;20.11;54.40
79491;SHT31;68950;53.098;18.032;2023-05-06T10:03:46;20.11;54.38
79491;SHT31;68950;53.098;18.032;2023-05-06T10:06:14;20.10;54.36
79491;SHT31;68950;53.098;18.032;2023-05-06T10:08:41;20.11;54.35
79491;SHT31;68950;53.098;18.032;2023-05-06T10:11:11;20.09;54.31
79491;SHT31;68950;53.098;18.032;2023-05-06T10:13:40;20.09;54.32
79491;SHT31;68950;53.098;18.032;2023-05-06T10:16:08;20.09;54.30
79491;SHT31;68950;53.098;18.032;2023-05-06T10:18:36;20.07;54.30
79491;SHT31;68950;53.098;18.032;2023-05-06T10:21:05;20.07;54.29
79491;SHT31;68950;53.098;18.032;2023-05-06T10:23:43;20.07;54.27
79491;SHT31;68950;53.098;18.032;2023-05-06T10:26:17;20.05;54.22
79491;SHT31;68950;53.098;18.032;2023-05-06T10:28:46;20.06;54.21
79491;SHT31;68950;53.098;18.032;2023-05-06T10:31:18;20.04;54.20
79491;SHT31;68950;53.098;18.032;2023-05-06T10:33:46;20.03;54.20
79491;SHT31;68950;53.098;18.032;2023-05-06T10:36:24;20.02;54.20
79491;SHT31;68950;53.098;18.032;2023-05-06T10:38:55;20.01;54.16
79491;SHT31;68950;53.098;18.032;2023-05-06T10:41:26;20.00;54.12
79491;SHT31;68950;53.098;18.032;2023-05-06T10:43:54;20.00;54.11
79491;SHT31;68950;53.098;18.032;2023-05-06T10:46:23;20.00;54.10
79491;SHT31;68950;53.098;18.032;2023-05-06T10:51:39;19.98;54.04
79491;SHT31;68950;53.098;18.032;2023-05-06T10:54:07;19.98;54.03
79491;SHT31;68950;53.098;18.032;2023-05-06T10:59:13;20.01;54.00
79491;SHT31;68950;53.098;18.032;2023-05-06T11:01:41;20.05;54.00
79491;SHT31;68950;53.098;18.032;2023-05-06T11:04:10;20.10;54.00
79491;SHT31;68950;53.098;18.032;2023-05-06T11:06:44;20.18;53.97
79491;SHT31;68950;53.098;18.032;2023-05-06T11:09:14;20.26;53.98
79491;SHT31;68950;53.098;18.032;2023-05-06T11:11:47;20.34;53.98
79491;SHT31;68950;53.098;18.032;2023-05-06T11:14:31;20.44;53.99
79491;SHT31;68950;53.098;18.032;2023-05-06T11:17:06;20.54;53.96
79491;SHT31;68950;53.098;18.032;2023-05-06T11:19:35;20.64;53.97
79491;SHT31;68950;53.098;18.032;2023-05-06T11:22:04;20.72;53.94
79491;SHT31;68950;53.098;18.032;2023-05-06T11:27:07;20.89;53.91
79491;SHT31;68950;53.098;18.032;2023-05-06T11:29:36;20.96;53.90
79491;SHT31;68950;53.098;18.032;2023-05-06T11:32:04;21.02;53.90
79491;SHT31;68950;53.098;18.032;2023-05-06T11:34:46;21.10;53.90
79491;SHT31;68950;53.098;18.032;2023-05-06T11:37:13;21.15;53.86
79491;SHT31;68950;53.098;18.032;2023-05-06T11:39:51;21.21;53.81
79491;SHT31;68950;53.098;18.032;2023-05-06T11:42:25;21.25;53.81
79491;SHT31;68950;53.098;18.032;2023-05-06T11:44:54;21.29;53.80
79491;SHT31;68950;53.098;18.032;2023-05-06T11:47:25;21.34;53.76
79491;SHT31;68950;53.098;18.032;2023-05-06T11:49:54;21.40;53.70
79491;SHT31;68950;53.098;18.032;2023-05-06T11:52:21;21.44;53.70
79491;SHT31;68950;53.098;18.032;2023-05-06T11:54:49;21.46;53.69
79491;SHT31;68950;53.098;18.032;2023-05-06T11:57:19;21.50;53.65
79491;SHT31;68950;53.098;18.032;2023-05-06T11:59:51;21.51;53.60
79491;SHT31;68950;53.098;18.032;2023-05-06T12:02:19;21.52;53.58
79491;SHT31;68950;53.098;18.032;2023-05-06T12:04:46;21.53;53.55
79491;SHT31;68950;53.098;18.032;2023-05-06T12:07:15;21.53;53.51
79491;SHT31;68950;53.098;18.032;2023-05-06T12:09:42;21.53;53.50
79491;SHT31;68950;53.098;18.032;2023-05-06T12:12:16;21.52;53.44
79491;SHT31;68950;53.098;18.032;2023-05-06T12:14:48;21.50;53.40
79491;SHT31;68950;53.098;18.032;2023-05-06T12:17:16;21.49;53.38
79491;SHT31;68950;53.098;18.032;2023-05-06T12:19:44;21.48;53.30
79491;SHT31;68950;53.098;18.032;2023-05-06T12:22:12;21.48;53.30
79491;SHT31;68950;53.098;18.032;2023-05-06T12:24:44;21.47;53.28
79491;SHT31;68950;53.098;18.032;2023-05-06T12:27:11;21.47;53.23
79491;SHT31;68950;53.098;18.032;2023-05-06T12:29:38;21.49;53.20
79491;SHT31;68950;53.098;18.032;2023-05-06T12:32:09;21.51;53.20
79491;SHT31;68950;53.098;18.032;2023-05-06T12:34:38;21.54;53.15
79491;SHT31;68950;53.098;18.032;2023-05-06T12:37:06;21.59;53.11
79491;SHT31;68950;53.098;18.032;2023-05-06T12:39:37;21.63;53.10
79491;SHT31;68950;53.098;18.032;2023-05-06T12:42:06;21.67;53.09
79491;SHT31;68950;53.098;18.032;2023-05-06T12:44:36;21.71;53.02
79491;SHT31;68950;53.098;18.032;2023-05-06T12:47:06;21.76;53.00
79491;SHT31;68950;53.098;18.032;2023-05-06T12:52:23;21.84;52.97
79491;SHT31;68950;53.098;18.032;2023-05-06T12:54:52;21.86;52.92
79491;SHT31;68950;53.098;18.032;2023-05-06T12:57:19;21.88;52.90
79491;SHT31;68950;53.098;18.032;2023-05-06T12:59:47;21.92;52.90
79491;SHT31;68950;53.098;18.032;2023-05-06T13:02:15;21.94;52.86
79491;SHT31;68950;53.098;18.032;2023-05-06T13:04:41;21.96;52.82
79491;SHT31;68950;53.098;18.032;2023-05-06T13:07:09;21.96;52.80
79491;SHT31;68950;53.098;18.032;2023-05-06T13:09:37;21.96;52.77
79491;SHT31;68950;53.098;18.032;2023-05-06T13:12:04;21.96;52.72
79491;SHT31;68950;53.098;18.032;2023-05-06T13:14:32;21.97;52.70
79491;SHT31;68950;53.098;18.032;2023-05-06T13:16:58;21.95;52.70
79491;SHT31;68950;53.098;18.032;2023-05-06T13:19:26;21.94;52.65
79491;SHT31;68950;53.098;18.032;2023-05-06T13:21:52;21.94;52.60
79491;SHT31;68950;53.098;18.032;2023-05-06T13:24:19;21.93;52.59
79491;SHT31;68950;53.098;18.032;2023-05-06T13:26:46;21.93;52.59
79491;SHT31;68950;53.098;18.032;2023-05-06T13:29:13;21.93;52.54
79491;SHT31;68950;53.098;18.032;2023-05-06T13:31:39;21.91;52.51
79491;SHT31;68950;53.098;18.032;2023-05-06T13:34:06;21.91;52.50
79491;SHT31;68950;53.098;18.032;2023-05-06T13:36:33;21.89;52.50
79491;SHT31;68950;53.098;18.032;2023-05-06T13:38:59;21.86;52.49
79491;SHT31;68950;53.098;18.032;2023-05-06T13:41:26;21.87;52.48
79491;SHT31;68950;53.098;18.032;2023-05-06T13:43:52;21.87;52.46
79491;SHT31;68950;53.098;18.032;2023-05-06T13:46:19;21.87;52.46
79491;SHT31;68950;53.098;18.032;2023-05-06T13:48:46;21.89;52.44
79491;SHT31;68950;53.098;18.032;2023-05-06T13:51:12;21.92;52.44
79491;SHT31;68950;53.098;18.032;2023-05-06T13:53:39;21.96;52.46
79491;SHT31;68950;53.098;18.032;2023-05-06T13:56:06;22.00;52.43
79491;SHT31;68950;53.098;18.032;2023-05-06T13:58:33;22.07;52.46
79491;SHT31;68950;53.098;18.032;2023-05-06T14:00:59;22.11;52.47
79491;SHT31;68950;53.098;18.032;2023-05-06T14:03:26;22.19;52.50
79491;SHT31;68950;53.098;18.032;2023-05-06T14:05:53;22.28;52.49
79491;SHT31;68950;53.098;18.032;2023-05-06T14:08:19;22.36;52.50
79491;SHT31;68950;53.098;18.032;2023-05-06T14:10:46;22.43;52.50
79491;SHT31;68950;53.098;18.032;2023-05-06T14:13:12;22.48;52.50
79491;SHT31;68950;53.098;18.032;2023-05-06T14:15:39;22.52;52.50
79491;SHT31;68950;53.098;18.032;2023-05-06T14:18:06;22.57;52.50
79491;SHT31;68950;53.098;18.032;2023-05-06T14:20:32;22.61;52.51
79491;SHT31;68950;53.098;18.032;2023-05-06T14:22:59;22.62;52.50
79491;SHT31;68950;53.098;18.032;2023-05-06T14:25:26;22.65;52.50
79491;SHT31;68950;53.098;18.032;2023-05-06T14:27:53;22.64;52.50
79491;SHT31;68950;53.098;18.032;2023-05-06T14:30:20;22.63;52.49
79491;SHT31;68950;53.098;18.032;2023-05-06T14:32:47;22.63;52.46
79491;SHT31;68950;53.098;18.032;2023-05-06T14:35:14;22.64;52.44
79491;SHT31;68950;53.098;18.032;2023-05-06T14:37:40;22.62;52.41
79491;SHT31;68950;53.098;18.032;2023-05-06T14:40:07;22.60;52.40
79491;SHT31;68950;53.098;18.032;2023-05-06T14:42:35;22.58;52.39
79491;SHT31;68950;53.098;18.032;2023-05-06T14:45:02;22.55;52.37
79491;SHT31;68950;53.098;18.032;2023-05-06T14:47:29;22.54;52.33
79491;SHT31;68950;53.098;18.032;2023-05-06T14:49:56;22.50;52.30
79491;SHT31;68950;53.098;18.032;2023-05-06T14:52:23;22.48;52.30
79491;SHT31;68950;53.098;18.032;2023-05-06T14:54:49;22.44;52.29
79491;SHT31;68950;53.098;18.032;2023-05-06T14:57:16;22.41;52.26
79491;SHT31;68950;53.098;18.032;2023-05-06T14:59:43;22.38;52.21
79491;SHT31;68950;53.098;18.032;2023-05-06T15:02:09;22.36;52.21
79491;SHT31;68950;53.098;18.032;2023-05-06T15:04:36;22.32;52.19
79491;SHT31;68950;53.098;18.032;2023-05-06T15:07:03;22.28;52.20
79491;SHT31;68950;53.098;18.032;2023-05-06T15:09:29;22.23;52.19
79491;SHT31;68950;53.098;18.032;2023-05-06T15:11:56;22.21;52.11
79491;SHT31;68950;53.098;18.032;2023-05-06T15:14:23;22.19;52.10
79491;SHT31;68950;53.098;18.032;2023-05-06T15:16:51;22.17;52.10
79491;SHT31;68950;53.098;18.032;2023-05-06T15:19:21;22.12;52.10
79491;SHT31;68950;53.098;18.032;2023-05-06T15:21:48;22.09;52.09
79491;SHT31;68950;53.098;18.032;2023-05-06T15:24:14;22.05;52.08
79491;SHT31;68950;53.098;18.032;2023-05-06T15:26:41;22.01;52.06
79491;SHT31;68950;53.098;18.032;2023-05-06T15:29:07;22.00;52.03
79491;SHT31;68950;53.098;18.032;2023-05-06T15:31:34;21.97;52.02
79491;SHT31;68950;53.098;18.032;2023-05-06T15:34:04;21.95;52.00
79491;SHT31;68950;53.098;18.032;2023-05-06T15:36:32;21.92;52.00
79491;SHT31;68950;53.098;18.032;2023-05-06T15:38:59;21.88;52.01